createdAt,value
2019-04-14T00:00:25.805Z,60.37
2019-04-14T00:01:26.152Z,59.95
2019-04-14T00:02:25.795Z,59.99
2019-04-14T00:03:26.115Z,60.27
2019-04-14T00:04:26.855Z,60.47
2019-04-14T00:05:25.742Z,60.47
2019-04-14T00:06:26.588Z,60.06
2019-04-14T00:07:27.662Z,60.47
2019-04-14T00:08:26.295Z,60.37
2019-04-14T00:09:25.697Z,60.50
2019-04-14T00:10:26.727Z,60.27
2019-04-14T00:11:26.291Z,60.40
2019-04-14T00:12:25.668Z,60.47
2019-04-14T00:13:26.296Z,60.27
2019-04-14T00:14:25.657Z,60.06
2019-04-14T00:15:33.034Z,60.16
2019-04-14T00:16:27.033Z,60.47
2019-04-14T00:17:26.243Z,60.37
2019-04-14T00:18:25.602Z,60.58
2019-04-14T00:19:26.170Z,60.27
2019-04-14T00:20:25.585Z,60.37
2019-04-14T00:21:26.101Z,60.16
2019-04-14T00:22:28.058Z,60.50
2019-04-14T00:23:26.121Z,60.78
2019-04-14T00:24:25.544Z,60.68
2019-04-14T00:25:26.181Z,60.37
2019-04-14T00:26:25.524Z,60.58
2019-04-14T00:27:25.943Z,60.58
2019-04-14T00:28:25.493Z,60.58
2019-04-14T00:29:26.328Z,60.58
2019-04-14T00:30:25.472Z,60.68
2019-04-14T00:31:26.232Z,60.99
2019-04-14T00:32:25.463Z,61.20
2019-04-14T00:33:25.931Z,60.89
2019-04-14T00:34:26.661Z,61.20
2019-04-14T00:35:25.599Z,61.22
2019-04-14T00:36:26.102Z,60.99
2019-04-14T00:37:25.398Z,60.89
2019-04-14T00:38:26.012Z,61.20
2019-04-14T00:39:25.393Z,61.40
2019-04-14T00:40:27.932Z,61.30
2019-04-14T00:41:37.565Z,61.64
2019-04-14T00:42:26.344Z,61.74
2019-04-14T00:43:26.445Z,61.54
2019-04-14T00:44:25.493Z,61.92
2019-04-14T00:45:33.909Z,62.16
2019-04-14T00:46:27.543Z,62.26
2019-04-14T00:47:25.300Z,62.26
2019-04-14T00:48:25.872Z,62.16
2019-04-14T00:49:25.279Z,62.23
2019-04-14T00:50:25.459Z,62.67
2019-04-14T00:51:26.510Z,62.77
2019-04-14T00:52:25.467Z,62.77
2019-04-14T00:53:25.449Z,62.95
2019-04-14T00:54:25.996Z,62.57
2019-04-14T00:55:25.208Z,62.98
2019-04-14T00:56:25.862Z,62.77
2019-04-14T00:57:25.194Z,63.29
2019-04-14T00:58:25.742Z,63.78
2019-04-14T00:59:25.174Z,63.19
2019-04-14T01:00:25.482Z,63.16
2019-04-14T01:01:26.406Z,63.19
2019-04-14T01:02:25.374Z,63.06
2019-04-14T01:03:25.123Z,63.29
2019-04-14T01:04:25.170Z,63.40
2019-04-14T01:05:26.207Z,63.26
2019-04-14T01:06:25.138Z,63.16
2019-04-14T01:07:26.116Z,63.71
2019-04-14T01:08:25.072Z,63.78
2019-04-14T01:09:26.112Z,64.64
2019-04-14T01:10:25.650Z,64.53
2019-04-14T01:11:25.082Z,64.43
2019-04-14T01:12:25.735Z,64.64
2019-04-14T01:13:25.022Z,65.05
2019-04-14T01:14:25.564Z,65.26
2019-04-14T01:15:25.000Z,64.95
2019-04-14T01:16:25.440Z,64.77
2019-04-14T01:17:25.002Z,65.81
2019-04-14T01:18:25.543Z,65.99
2019-04-14T01:19:24.963Z,66.50
2019-04-14T01:20:25.336Z,66.39
2019-04-14T01:21:24.940Z,66.71
2019-04-14T01:22:24.971Z,66.29
2019-04-14T01:23:26.036Z,66.39
2019-04-14T01:24:25.048Z,66.60
2019-04-14T01:25:25.991Z,66.71
2019-04-14T01:26:24.878Z,67.12
2019-04-14T01:27:25.645Z,67.25
2019-04-14T01:28:24.873Z,66.84
2019-04-14T01:29:25.507Z,67.57
2019-04-14T01:30:24.847Z,67.46
2019-04-14T01:31:25.171Z,67.98
2019-04-14T01:32:26.071Z,67.67
2019-04-14T01:33:25.050Z,67.77
2019-04-14T01:34:25.874Z,67.88
2019-04-14T01:35:24.944Z,67.98
2019-04-14T01:36:25.585Z,67.98
2019-04-14T01:37:24.820Z,67.77
2019-04-14T01:38:25.543Z,68.29
2019-04-14T01:39:24.756Z,67.98
2019-04-14T01:40:24.922Z,68.60
2019-04-14T01:41:25.965Z,67.88
2019-04-14T01:42:24.737Z,68.19
2019-04-14T01:43:25.636Z,68.29
2019-04-14T01:44:24.691Z,68.49
2019-04-14T01:45:25.344Z,68.91
2019-04-14T01:46:29.295Z,69.32
2019-04-14T01:47:26.939Z,69.32
2019-04-14T01:48:25.770Z,68.60
2019-04-14T01:49:24.779Z,69.12
2019-04-14T01:50:25.558Z,69.22
2019-04-14T01:51:24.621Z,69.43
2019-04-14T01:52:25.297Z,69.95
2019-04-14T01:53:25.044Z,70.57
2019-04-14T01:54:25.681Z,71.08
2019-04-14T01:55:24.573Z,70.87
2019-04-14T01:56:25.189Z,70.98
2019-04-14T01:57:24.585Z,71.08
2019-04-14T01:58:25.082Z,71.19
2019-04-14T01:59:24.533Z,71.19
2019-04-14T02:00:25.003Z,71.39
2019-04-14T02:01:24.517Z,71.50
2019-04-14T02:02:24.811Z,71.29
2019-04-14T02:03:24.517Z,71.50
2019-04-14T02:04:24.634Z,71.60
2019-04-14T02:05:25.468Z,71.60
2019-04-14T02:06:24.664Z,71.60
2019-04-14T02:07:25.561Z,71.70
2019-04-14T02:08:24.464Z,71.70
2019-04-14T02:09:25.112Z,71.70
2019-04-14T02:10:24.429Z,71.70
2019-04-14T02:11:24.767Z,71.60
2019-04-14T02:12:25.448Z,71.60
2019-04-14T02:13:24.834Z,71.70
2019-04-14T02:14:25.495Z,71.81
2019-04-14T02:15:24.512Z,71.91
2019-04-14T02:16:33.000Z,72.02
2019-04-14T02:17:26.379Z,71.81
2019-04-14T02:18:25.092Z,72.22
2019-04-14T02:19:24.338Z,72.02
2019-04-14T02:20:25.071Z,72.64
2019-04-14T02:21:24.310Z,72.64
2019-04-14T02:22:24.588Z,72.94
2019-04-14T02:23:24.288Z,72.22
2019-04-14T02:24:24.287Z,72.53
2019-04-14T02:25:25.319Z,72.98
2019-04-14T02:26:24.248Z,73.19
2019-04-14T02:27:25.291Z,73.29
2019-04-14T02:28:24.324Z,73.39
2019-04-14T02:29:25.425Z,73.71
2019-04-14T02:30:34.000Z,73.81
2019-04-14T02:31:43.339Z,73.60
2019-04-14T02:32:49.510Z,73.39
2019-04-14T02:33:50.325Z,73.81
2019-04-14T02:34:55.176Z,73.91
2019-04-14T02:35:55.905Z,73.81
2019-04-14T02:36:56.426Z,73.39
2019-04-14T02:37:58.859Z,74.43
2019-04-14T02:39:13.987Z,74.32
2019-04-14T02:39:54.049Z,73.50
2019-04-14T02:40:53.330Z,74.02
2019-04-14T02:42:00.806Z,73.81
2019-04-14T02:42:54.490Z,73.91
2019-04-14T02:43:57.656Z,73.91
2019-04-14T02:44:53.569Z,73.81
2019-04-14T02:49:54.404Z,75.40
2019-04-14T02:50:51.349Z,75.40
2019-04-14T02:51:49.670Z,75.29
2019-04-14T02:52:51.659Z,75.78
2019-04-14T02:54:07.435Z,75.71
2019-04-14T02:55:58.933Z,75.92
2019-04-14T02:56:52.962Z,75.81
2019-04-14T02:57:52.508Z,75.92
2019-04-14T02:58:55.094Z,75.92
2019-04-14T02:59:49.640Z,76.02
2019-04-14T03:00:58.382Z,76.23
2019-04-14T03:02:11.508Z,76.02
2019-04-14T03:02:52.268Z,75.92
2019-04-14T03:04:50.594Z,76.12
2019-04-14T03:05:53.771Z,75.81
2019-04-14T03:06:50.375Z,75.81
2019-04-14T03:07:51.675Z,76.23
2019-04-14T03:09:13.651Z,76.23
2019-04-14T03:09:42.054Z,76.57
2019-04-14T03:10:48.174Z,76.46
2019-04-14T03:13:53.960Z,77.29
2019-04-14T03:15:57.421Z,77.40
2019-04-14T03:16:56.048Z,77.19
2019-04-14T03:18:00.534Z,77.19
2019-04-14T03:19:55.005Z,77.40
2019-04-14T03:20:47.955Z,77.19
2019-04-14T03:21:49.291Z,77.29
2019-04-14T03:22:49.906Z,77.29
2019-04-14T03:23:57.966Z,77.09
2019-04-14T03:24:39.112Z,77.19
2019-04-14T03:25:44.987Z,77.29
2019-04-14T03:26:51.759Z,77.29
2019-04-14T03:28:08.465Z,77.50
2019-04-14T03:28:45.430Z,77.09
2019-04-14T03:29:49.887Z,76.98
2019-04-14T03:31:09.853Z,76.98
2019-04-14T03:34:12.848Z,77.50
2019-04-14T03:35:03.547Z,77.61
2019-04-14T03:36:16.647Z,77.50
2019-04-14T03:37:50.367Z,77.81
2019-04-14T03:40:50.568Z,77.47
2019-04-14T03:41:58.218Z,77.61
2019-04-14T03:42:59.360Z,77.71
2019-04-14T03:44:05.745Z,77.50
2019-04-14T03:44:49.481Z,77.92
2019-04-14T03:46:11.501Z,77.81
2019-04-14T03:46:51.141Z,77.61
2019-04-14T03:48:00.594Z,77.67
2019-04-14T03:50:56.166Z,77.40
2019-04-14T03:51:50.644Z,77.71
2019-04-14T03:53:48.504Z,77.61
2019-04-14T03:54:45.554Z,77.81
2019-04-14T03:55:36.420Z,77.81
2019-04-14T03:56:24.531Z,77.71
2019-04-14T03:57:23.662Z,77.81
2019-04-14T03:58:24.553Z,77.81
2019-04-14T03:59:24.053Z,77.61
2019-04-14T04:00:24.569Z,78.23
2019-04-14T04:01:25.877Z,78.44
2019-04-14T04:02:23.293Z,78.33
2019-04-14T04:03:23.928Z,78.96
2019-04-14T04:04:23.221Z,78.96
2019-04-14T04:05:23.783Z,78.85
2019-04-14T04:06:23.197Z,78.75
2019-04-14T04:07:23.538Z,78.96
2019-04-14T04:08:24.349Z,78.23
2019-04-14T04:09:23.587Z,78.85
2019-04-14T04:10:23.183Z,78.85
2019-04-14T04:11:23.776Z,78.75
2019-04-14T04:12:23.134Z,78.12
2019-04-14T04:13:23.737Z,78.12
2019-04-14T04:14:23.118Z,78.33
2019-04-14T04:15:23.529Z,78.30
2019-04-14T04:16:23.096Z,77.78
2019-04-14T04:17:23.352Z,78.02
2019-04-14T04:18:24.116Z,78.02
2019-04-14T04:19:23.072Z,78.19
2019-04-14T04:20:23.943Z,78.09
2019-04-14T04:21:23.039Z,78.23
2019-04-14T04:22:23.671Z,78.30
2019-04-14T04:23:23.028Z,78.19
2019-04-14T04:24:23.546Z,78.02
2019-04-14T04:25:22.999Z,78.12
2019-04-14T04:26:23.346Z,78.85
2019-04-14T04:27:22.975Z,78.92
2019-04-14T04:28:23.234Z,78.64
2019-04-14T04:29:22.961Z,79.06
2019-04-14T04:30:23.097Z,78.54
2019-04-14T04:31:24.159Z,79.47
2019-04-14T04:32:23.050Z,79.47
2019-04-14T04:33:24.110Z,79.68
2019-04-14T04:34:22.911Z,79.58
2019-04-14T04:35:23.889Z,79.27
2019-04-14T04:36:22.922Z,79.16
2019-04-14T04:37:23.567Z,79.16
2019-04-14T04:38:22.862Z,79.27
2019-04-14T04:39:23.599Z,79.58
2019-04-14T04:40:22.849Z,79.68
2019-04-14T04:41:23.293Z,79.78
2019-04-14T04:42:22.841Z,79.58
2019-04-14T04:43:23.333Z,79.16
2019-04-14T04:44:22.795Z,79.99
2019-04-14T04:45:23.481Z,80.40
2019-04-14T04:46:22.776Z,79.99
2019-04-14T04:47:23.151Z,80.51
2019-04-14T04:48:22.759Z,80.30
2019-04-14T04:49:25.786Z,80.30
2019-04-14T04:50:23.796Z,80.51
2019-04-14T04:51:22.732Z,80.40
2019-04-14T04:52:23.670Z,80.19
2019-04-14T04:53:22.770Z,79.74
2019-04-14T04:54:23.538Z,79.99
2019-04-14T04:55:22.688Z,79.88
2019-04-14T04:56:23.248Z,80.51
2019-04-14T04:57:22.680Z,80.51
2019-04-14T04:58:22.665Z,81.02
2019-04-14T04:59:23.483Z,81.02
2019-04-14T05:00:22.637Z,80.82
2019-04-14T05:01:23.194Z,80.92
2019-04-14T05:02:22.641Z,81.68
2019-04-14T05:03:23.316Z,81.54
2019-04-14T05:04:22.593Z,81.65
2019-04-14T05:05:23.149Z,81.44
2019-04-14T05:06:23.755Z,81.54
2019-04-14T05:07:23.105Z,80.92
2019-04-14T05:08:22.592Z,81.13
2019-04-14T05:09:23.076Z,81.13
2019-04-14T05:10:22.521Z,80.71
2019-04-14T05:11:23.079Z,80.71
2019-04-14T05:12:22.514Z,80.82
2019-04-14T05:13:22.710Z,80.71
2019-04-14T05:14:22.504Z,81.13
2019-04-14T05:15:22.690Z,80.82
2019-04-14T05:16:22.462Z,80.71
2019-04-14T05:17:23.382Z,81.13
2019-04-14T05:18:22.459Z,81.13
2019-04-14T05:19:28.604Z,80.92
2019-04-14T05:20:23.427Z,80.71
2019-04-14T05:21:23.436Z,80.71
2019-04-14T05:22:22.473Z,80.51
2019-04-14T05:23:23.457Z,80.82
2019-04-14T05:24:22.378Z,81.44
2019-04-14T05:25:23.292Z,81.23
2019-04-14T05:26:22.361Z,81.23
2019-04-14T05:27:23.217Z,80.92
2019-04-14T05:28:22.333Z,80.61
2019-04-14T05:29:23.166Z,80.82
2019-04-14T05:30:22.323Z,80.82
2019-04-14T05:31:22.946Z,81.13
2019-04-14T05:32:22.302Z,80.92
2019-04-14T05:33:22.860Z,80.78
2019-04-14T05:34:22.276Z,80.68
2019-04-14T05:35:22.706Z,80.71
2019-04-14T05:36:22.254Z,81.20
2019-04-14T05:37:22.541Z,81.51
2019-04-14T05:38:23.521Z,81.20
2019-04-14T05:39:22.242Z,80.78
2019-04-14T05:40:23.384Z,80.61
2019-04-14T05:41:22.335Z,81.09
2019-04-14T05:42:25.503Z,81.71
2019-04-14T05:43:30.337Z,81.30
2019-04-14T05:44:23.213Z,81.09
2019-04-14T05:45:22.162Z,81.09
2019-04-14T05:46:23.097Z,81.09
2019-04-14T05:47:22.142Z,81.40
2019-04-14T05:48:22.876Z,81.05
2019-04-14T05:49:30.643Z,80.68
2019-04-14T05:50:23.105Z,80.64
2019-04-14T05:51:23.266Z,80.74
2019-04-14T05:52:23.001Z,81.37
2019-04-14T05:53:22.081Z,80.85
2019-04-14T05:54:23.047Z,80.85
2019-04-14T05:55:22.076Z,80.64
2019-04-14T05:56:23.057Z,81.26
2019-04-14T05:57:22.031Z,81.47
2019-04-14T05:58:23.095Z,81.47
2019-04-14T05:59:22.042Z,80.85
2019-04-14T06:00:21.999Z,80.95
2019-04-14T06:01:22.548Z,80.54
2019-04-14T06:02:22.291Z,80.68
2019-04-14T06:03:21.966Z,80.99
2019-04-14T06:04:22.209Z,80.99
2019-04-14T06:05:23.167Z,80.85
2019-04-14T06:06:21.940Z,80.99
2019-04-14T06:07:21.959Z,80.99
2019-04-14T06:08:21.914Z,80.99
2019-04-14T06:09:21.924Z,81.05
2019-04-14T06:10:21.893Z,81.09
2019-04-14T06:11:21.896Z,81.16
2019-04-14T06:12:21.875Z,81.37
2019-04-14T06:13:21.886Z,81.40
2019-04-14T06:14:21.850Z,81.05
2019-04-14T06:15:21.839Z,80.74
2019-04-14T06:16:21.838Z,80.64
2019-04-14T06:17:21.825Z,81.05
2019-04-14T06:18:21.835Z,81.05
2019-04-14T06:19:21.819Z,81.05
2019-04-14T06:20:21.787Z,80.95
2019-04-14T06:21:21.792Z,81.37
2019-04-14T06:22:21.765Z,80.74
2019-04-14T06:23:21.752Z,80.64
2019-04-14T06:24:21.768Z,80.74
2019-04-14T06:25:21.738Z,80.95
2019-04-14T06:26:21.725Z,81.05
2019-04-14T06:27:21.715Z,81.57
2019-04-14T06:28:21.709Z,81.47
2019-04-14T06:29:21.720Z,81.54
2019-04-14T06:30:21.683Z,81.54
2019-04-14T06:31:21.672Z,81.26
2019-04-14T06:32:21.660Z,81.05
2019-04-14T06:33:21.644Z,80.54
2019-04-14T06:34:21.667Z,81.05
2019-04-14T06:35:21.629Z,80.85
2019-04-14T06:36:21.624Z,80.64
2019-04-14T06:37:21.613Z,81.05
2019-04-14T06:38:21.602Z,80.54
2019-04-14T06:39:21.593Z,80.85
2019-04-14T06:40:21.597Z,80.64
2019-04-14T06:41:21.568Z,80.64
2019-04-14T06:42:21.553Z,80.95
2019-04-14T06:43:21.542Z,81.20
2019-04-14T06:44:21.535Z,81.57
2019-04-14T06:45:21.542Z,81.57
2019-04-14T06:46:21.507Z,81.37
2019-04-14T06:47:21.498Z,80.85
2019-04-14T06:48:21.493Z,80.78
2019-04-14T06:49:21.541Z,80.88
2019-04-14T06:50:21.505Z,81.40
2019-04-14T06:51:21.460Z,80.99
2019-04-14T06:52:21.452Z,80.74
2019-04-14T06:53:21.443Z,81.09
2019-04-14T06:54:21.427Z,80.95
2019-04-14T06:55:21.418Z,80.74
2019-04-14T06:56:21.433Z,81.47
2019-04-14T06:57:21.400Z,81.37
2019-04-14T06:58:21.387Z,80.85
2019-04-14T06:59:21.387Z,80.64
2019-04-14T07:00:21.362Z,80.85
2019-04-14T07:01:21.378Z,81.26
2019-04-14T07:02:21.366Z,81.26
2019-04-14T07:03:21.337Z,81.05
2019-04-14T07:04:21.325Z,81.37
2019-04-14T07:05:21.307Z,81.37
2019-04-14T07:06:21.292Z,81.47
2019-04-14T07:07:21.310Z,81.37
2019-04-14T07:08:21.285Z,81.37
2019-04-14T07:09:21.290Z,81.16
2019-04-14T07:10:21.862Z,80.95
2019-04-14T07:11:21.250Z,81.37
2019-04-14T07:12:21.260Z,81.47
2019-04-14T07:13:21.263Z,81.33
2019-04-14T07:14:21.217Z,81.23
2019-04-14T07:15:21.203Z,81.23
2019-04-14T07:16:21.197Z,80.91
2019-04-14T07:17:21.187Z,81.37
2019-04-14T07:18:21.203Z,81.16
2019-04-14T07:19:21.162Z,81.47
2019-04-14T07:20:21.154Z,81.26
2019-04-14T07:21:21.143Z,81.43
2019-04-14T07:22:21.133Z,81.37
2019-04-14T07:23:21.122Z,81.68
2019-04-14T07:24:21.122Z,81.43
2019-04-14T07:25:21.093Z,81.64
2019-04-14T07:26:21.085Z,81.95
2019-04-14T07:27:21.094Z,82.46
2019-04-14T07:28:21.067Z,81.54
2019-04-14T07:29:21.076Z,81.64
2019-04-14T07:30:21.049Z,81.43
2019-04-14T07:31:21.037Z,81.74
2019-04-14T07:32:21.024Z,81.33
2019-04-14T07:33:21.027Z,81.43
2019-04-14T07:34:21.004Z,81.12
2019-04-14T07:35:20.995Z,81.43
2019-04-14T07:36:20.980Z,81.43
2019-04-14T07:37:20.976Z,81.43
2019-04-14T07:38:20.987Z,81.54
2019-04-14T07:39:20.945Z,81.33
2019-04-14T07:40:20.940Z,81.23
2019-04-14T07:41:20.932Z,81.23
2019-04-14T07:42:20.925Z,81.49
2019-04-14T07:43:20.912Z,80.77
2019-04-14T07:44:20.933Z,80.88
2019-04-14T07:45:20.881Z,81.19
2019-04-14T07:46:20.874Z,80.57
2019-04-14T07:47:20.863Z,80.77
2019-04-14T07:48:20.859Z,80.98
2019-04-14T07:49:20.869Z,81.12
2019-04-14T07:50:20.901Z,81.09
2019-04-14T07:51:20.820Z,81.02
2019-04-14T07:52:20.815Z,81.19
2019-04-14T07:53:20.804Z,81.09
2019-04-14T07:54:20.796Z,81.70
2019-04-14T07:55:20.783Z,81.39
2019-04-14T07:56:20.790Z,81.19
2019-04-14T07:57:20.755Z,80.84
2019-04-14T07:58:20.745Z,80.63
2019-04-14T07:59:20.735Z,80.36
2019-04-14T08:00:20.751Z,80.53
2019-04-14T08:01:20.726Z,80.94
2019-04-14T08:02:20.717Z,81.39
2019-04-14T08:03:20.717Z,81.29
2019-04-14T08:04:20.681Z,82.08
2019-04-14T08:05:20.689Z,81.35
2019-04-14T08:06:20.696Z,81.67
2019-04-14T08:07:20.657Z,81.56
2019-04-14T08:08:20.660Z,80.94
2019-04-14T08:09:20.633Z,80.63
2019-04-14T08:10:20.650Z,80.74
2019-04-14T08:11:20.611Z,80.43
2019-04-14T08:12:20.607Z,80.43
2019-04-14T08:13:20.597Z,80.01
2019-04-14T08:14:20.587Z,80.43
2019-04-14T08:15:20.588Z,80.63
2019-04-14T08:16:20.579Z,80.74
2019-04-14T08:17:20.575Z,80.39
2019-04-14T08:18:21.384Z,80.29
2019-04-14T08:19:20.530Z,80.53
2019-04-14T08:20:27.451Z,79.91
2019-04-14T08:21:21.537Z,80.08
2019-04-14T08:22:20.501Z,80.70
2019-04-14T08:23:20.515Z,80.80
2019-04-14T08:24:20.485Z,80.39
2019-04-14T08:25:20.484Z,80.49
2019-04-14T08:26:20.502Z,80.29
2019-04-14T08:27:20.452Z,80.39
2019-04-14T08:28:21.420Z,80.60
2019-04-14T08:29:20.425Z,80.90
2019-04-14T08:30:20.449Z,81.32
2019-04-14T08:31:20.404Z,81.21
2019-04-14T08:32:20.426Z,80.97
2019-04-14T08:33:20.391Z,80.87
2019-04-14T08:34:20.383Z,80.46
2019-04-14T08:35:20.374Z,80.04
2019-04-14T08:36:20.355Z,80.35
2019-04-14T08:37:20.361Z,79.73
2019-04-14T08:38:20.339Z,79.32
2019-04-14T08:39:20.385Z,79.90
2019-04-14T08:40:20.925Z,79.69
2019-04-14T08:41:20.301Z,80.42
2019-04-14T08:42:20.317Z,80.21
2019-04-14T08:43:20.279Z,79.90
2019-04-14T08:44:20.277Z,79.90
2019-04-14T08:45:20.263Z,80.11
2019-04-14T08:46:20.256Z,79.90
2019-04-14T08:47:20.319Z,79.76
2019-04-14T08:48:20.253Z,79.90
2019-04-14T08:49:20.215Z,79.86
2019-04-14T08:50:20.207Z,80.38
2019-04-14T08:51:20.199Z,80.28
2019-04-14T08:52:20.199Z,79.80
2019-04-14T08:53:20.202Z,80.07
2019-04-14T08:54:20.160Z,79.35
2019-04-14T08:55:20.147Z,79.55
2019-04-14T08:56:20.167Z,79.04
2019-04-14T08:57:20.135Z,79.97
2019-04-14T08:58:20.886Z,79.76
2019-04-14T08:59:20.112Z,79.04
2019-04-14T09:00:20.093Z,79.41
2019-04-14T09:01:20.082Z,79.00
2019-04-14T09:02:20.074Z,79.00
2019-04-14T09:03:20.064Z,78.18
2019-04-14T09:04:20.086Z,77.73
2019-04-14T09:05:20.051Z,77.97
2019-04-14T09:06:20.044Z,77.97
2019-04-14T09:07:20.027Z,78.59
2019-04-14T09:08:20.041Z,78.45
2019-04-14T09:09:20.024Z,78.14
2019-04-14T09:10:19.995Z,77.73
2019-04-14T09:11:20.030Z,77.73
2019-04-14T09:12:19.969Z,78.24
2019-04-14T09:13:19.982Z,78.28
2019-04-14T09:14:19.945Z,78.28
2019-04-14T09:15:19.957Z,77.97
2019-04-14T09:16:19.932Z,77.83
2019-04-14T09:17:19.920Z,78.55
2019-04-14T09:18:19.910Z,78.04
2019-04-14T09:19:21.115Z,78.55
2019-04-14T09:20:23.480Z,78.45
2019-04-14T09:21:20.492Z,78.76
2019-04-14T09:22:22.146Z,79.07
2019-04-14T09:23:19.857Z,77.94
2019-04-14T09:24:19.846Z,77.94
2019-04-14T09:25:19.880Z,77.69
2019-04-14T09:26:19.849Z,77.94
2019-04-14T09:27:20.410Z,78.11
2019-04-14T09:28:19.803Z,77.08
2019-04-14T09:29:19.848Z,77.08
2019-04-14T09:30:20.377Z,76.46
2019-04-14T09:31:19.994Z,76.63
2019-04-14T09:32:19.779Z,75.70
2019-04-14T09:33:19.819Z,76.83
2019-04-14T09:34:20.341Z,76.66
2019-04-14T09:35:19.749Z,76.87
2019-04-14T09:36:19.726Z,76.76
2019-04-14T09:37:19.736Z,76.83
2019-04-14T09:38:19.707Z,76.01
2019-04-14T09:39:19.692Z,76.87
2019-04-14T09:40:19.670Z,76.93
2019-04-14T09:41:19.681Z,77.08
2019-04-14T09:42:19.658Z,76.76
2019-04-14T09:43:19.647Z,77.14
2019-04-14T09:44:19.627Z,77.04
2019-04-14T09:45:19.617Z,76.66
2019-04-14T09:46:19.628Z,77.08
2019-04-14T09:47:19.606Z,77.28
2019-04-14T09:48:19.594Z,77.28
2019-04-14T09:49:19.591Z,76.87
2019-04-14T09:50:19.573Z,77.31
2019-04-14T09:51:19.587Z,77.59
2019-04-14T09:52:19.542Z,77.08
2019-04-14T09:53:19.532Z,76.87
2019-04-14T09:54:19.525Z,76.70
2019-04-14T09:55:19.512Z,76.66
2019-04-14T09:56:19.506Z,76.97
2019-04-14T09:57:19.516Z,76.76
2019-04-14T09:58:19.486Z,76.76
2019-04-14T09:59:19.467Z,76.90
2019-04-14T10:00:19.468Z,77.22
2019-04-14T10:01:19.483Z,77.42
2019-04-14T10:02:19.446Z,77.94
2019-04-14T10:03:19.434Z,77.69
2019-04-14T10:04:19.417Z,77.08
2019-04-14T10:05:19.411Z,77.11
2019-04-14T10:06:19.407Z,77.08
2019-04-14T10:07:19.409Z,77.28
2019-04-14T10:08:19.381Z,77.18
2019-04-14T10:09:19.375Z,77.28
2019-04-14T10:10:19.362Z,77.18
2019-04-14T10:11:19.353Z,76.76
2019-04-14T10:12:19.355Z,76.87
2019-04-14T10:13:19.331Z,77.08
2019-04-14T10:14:19.318Z,76.97
2019-04-14T10:15:19.310Z,77.28
2019-04-14T10:16:19.293Z,77.80
2019-04-14T10:17:19.308Z,77.69
2019-04-14T10:18:19.270Z,78.00
2019-04-14T10:19:19.258Z,78.41
2019-04-14T10:20:19.253Z,78.21
2019-04-14T10:21:19.244Z,77.90
2019-04-14T10:22:19.230Z,78.41
2019-04-14T10:23:19.240Z,77.18
2019-04-14T10:24:19.206Z,77.11
2019-04-14T10:25:19.191Z,78.52
2019-04-14T10:26:19.181Z,78.45
2019-04-14T10:27:19.168Z,78.11
2019-04-14T10:28:19.198Z,77.90
2019-04-14T10:29:19.156Z,77.80
2019-04-14T10:30:19.138Z,78.52
2019-04-14T10:31:19.127Z,77.01
2019-04-14T10:32:19.129Z,77.28
2019-04-14T10:33:19.110Z,77.59
2019-04-14T10:34:19.121Z,77.38
2019-04-14T10:35:19.090Z,77.18
2019-04-14T10:36:19.078Z,77.83
2019-04-14T10:37:19.063Z,78.11
2019-04-14T10:38:19.053Z,78.41
2019-04-14T10:39:19.059Z,78.21
2019-04-14T10:40:19.052Z,78.31
2019-04-14T10:41:19.025Z,78.21
2019-04-14T10:42:19.014Z,78.00
2019-04-14T10:43:19.001Z,78.31
2019-04-14T10:44:19.013Z,77.80
2019-04-14T10:45:18.976Z,78.31
2019-04-14T10:46:18.972Z,78.52
2019-04-14T10:47:18.966Z,78.21
2019-04-14T10:48:18.941Z,78.41
2019-04-14T10:49:18.950Z,78.31
2019-04-14T10:50:30.296Z,78.62
2019-04-14T10:51:29.580Z,77.90
2019-04-14T10:52:19.903Z,78.04
2019-04-14T10:53:18.897Z,78.62
2019-04-14T10:54:18.901Z,79.14
2019-04-14T10:55:18.873Z,79.03
2019-04-14T10:56:19.853Z,79.27
2019-04-14T10:57:18.847Z,78.93
2019-04-14T10:58:18.833Z,79.03
2019-04-14T10:59:18.851Z,78.62
2019-04-14T11:00:18.816Z,78.93
2019-04-14T11:01:18.806Z,78.28
2019-04-14T11:02:18.791Z,77.80
2019-04-14T11:03:18.792Z,78.38
2019-04-14T11:04:18.782Z,77.66
2019-04-14T11:05:18.782Z,77.97
2019-04-14T11:06:18.750Z,77.45
2019-04-14T11:07:18.742Z,78.48
2019-04-14T11:08:18.731Z,77.97
2019-04-14T11:09:18.735Z,78.48
2019-04-14T11:10:18.702Z,78.17
2019-04-14T11:11:18.692Z,78.48
2019-04-14T11:12:18.701Z,78.17
2019-04-14T11:13:18.681Z,77.66
2019-04-14T11:14:18.694Z,78.14
2019-04-14T11:15:18.663Z,77.72
2019-04-14T11:16:18.642Z,78.03
2019-04-14T11:17:18.627Z,77.62
2019-04-14T11:18:18.627Z,77.42
2019-04-14T11:19:18.622Z,77.21
2019-04-14T11:20:18.625Z,77.11
2019-04-14T11:21:18.599Z,77.93
2019-04-14T11:22:18.574Z,77.21
2019-04-14T11:23:18.567Z,76.86
2019-04-14T11:24:19.418Z,77.38
2019-04-14T11:25:18.573Z,76.86
2019-04-14T11:26:18.547Z,76.76
2019-04-14T11:27:18.528Z,76.86
2019-04-14T11:28:18.546Z,76.66
2019-04-14T11:29:18.503Z,76.76
2019-04-14T11:30:18.491Z,76.62
2019-04-14T11:31:18.483Z,76.62
2019-04-14T11:32:18.494Z,76.73
2019-04-14T11:33:18.480Z,76.31
2019-04-14T11:34:18.452Z,75.80
2019-04-14T11:35:18.471Z,76.62
2019-04-14T11:36:18.434Z,76.42
2019-04-14T11:37:18.499Z,75.49
2019-04-14T11:38:18.423Z,76.48
2019-04-14T11:39:18.414Z,75.46
2019-04-14T11:40:18.385Z,75.56
2019-04-14T11:41:18.374Z,75.35
2019-04-14T11:42:18.401Z,74.95
2019-04-14T11:43:18.357Z,75.15
2019-04-14T11:44:18.348Z,75.35
2019-04-14T11:45:18.339Z,74.95
2019-04-14T11:46:18.334Z,74.19
2019-04-14T11:47:18.354Z,74.67
2019-04-14T11:48:18.312Z,74.26
2019-04-14T11:49:18.291Z,74.36
2019-04-14T11:50:18.295Z,73.85
2019-04-14T11:51:18.274Z,73.44
2019-04-14T11:52:18.261Z,73.33
2019-04-14T11:53:18.267Z,73.02
2019-04-14T11:54:18.239Z,73.23
2019-04-14T11:55:18.235Z,73.02
2019-04-14T11:56:18.222Z,72.99
2019-04-14T11:57:18.210Z,72.55
2019-04-14T11:58:18.218Z,71.31
2019-04-14T11:59:18.187Z,71.11
2019-04-14T12:00:18.172Z,71.42
2019-04-14T12:01:18.161Z,70.70
2019-04-14T12:02:18.166Z,71.01
2019-04-14T12:03:18.174Z,70.70
2019-04-14T12:04:18.135Z,70.56
2019-04-14T12:05:18.129Z,70.36
2019-04-14T12:06:18.106Z,70.26
2019-04-14T12:07:18.102Z,69.92
2019-04-14T12:08:18.099Z,69.20
2019-04-14T12:09:18.107Z,69.06
2019-04-14T12:10:18.084Z,69.30
2019-04-14T12:11:18.061Z,68.45
2019-04-14T12:12:18.043Z,68.65
2019-04-14T12:13:18.032Z,68.35
2019-04-14T12:14:18.045Z,67.70
2019-04-14T12:15:18.015Z,67.11
2019-04-14T12:16:18.009Z,67.43
2019-04-14T12:17:17.997Z,66.57
2019-04-14T12:18:17.993Z,66.81
2019-04-14T12:19:17.992Z,67.52
2019-04-14T12:20:17.970Z,66.60
2019-04-14T12:21:17.998Z,66.91
2019-04-14T12:22:17.962Z,66.40
2019-04-14T12:23:17.980Z,66.06
2019-04-14T12:24:17.915Z,66.67
2019-04-14T12:25:17.926Z,66.78
2019-04-14T12:26:17.914Z,66.78
2019-04-14T12:27:17.884Z,66.27
2019-04-14T12:28:17.882Z,66.30
2019-04-14T12:29:18.858Z,66.37
2019-04-14T12:30:18.092Z,66.57
2019-04-14T12:31:17.878Z,66.16
2019-04-14T12:32:17.831Z,66.34
2019-04-14T12:33:17.822Z,66.34
2019-04-14T12:34:18.485Z,66.34
2019-04-14T12:35:17.797Z,66.06
2019-04-14T12:36:17.805Z,66.47
2019-04-14T12:37:18.075Z,66.37
2019-04-14T12:38:17.764Z,66.47
2019-04-14T12:39:17.878Z,66.67
2019-04-14T12:40:17.769Z,66.34
2019-04-14T12:41:17.804Z,65.96
2019-04-14T12:42:17.760Z,66.44
2019-04-14T12:43:17.720Z,65.80
2019-04-14T12:44:17.701Z,65.59
2019-04-14T12:45:17.689Z,65.69
2019-04-14T12:46:17.758Z,65.69
2019-04-14T12:47:17.768Z,65.15
2019-04-14T12:48:17.691Z,64.03
2019-04-14T12:49:17.654Z,64.33
2019-04-14T12:50:17.646Z,64.13
2019-04-14T12:51:20.388Z,64.03
2019-04-14T12:52:21.581Z,64.13
2019-04-14T12:53:17.630Z,64.13
2019-04-14T12:54:17.607Z,63.82
2019-04-14T12:55:17.596Z,64.23
2019-04-14T12:56:17.573Z,64.43
2019-04-14T12:57:17.563Z,64.33
2019-04-14T12:58:17.580Z,64.33
2019-04-14T12:59:17.538Z,64.33
2019-04-14T13:00:17.540Z,64.57
2019-04-14T13:01:17.527Z,64.13
2019-04-14T13:02:17.570Z,64.26
2019-04-14T13:03:17.532Z,64.36
2019-04-14T13:04:17.483Z,64.87
2019-04-14T13:05:17.473Z,64.33
2019-04-14T13:06:17.470Z,64.54
2019-04-14T13:07:17.453Z,64.13
2019-04-14T13:08:17.451Z,64.23
2019-04-14T13:09:17.471Z,64.00
2019-04-14T13:10:17.421Z,63.79